sensor_id;sensor_type;location;lat;lon;timestamp;temperature;humidity
22430;DHT22;11382;48.086;11.632;2022-08-21T00:01:44;17.10;99.90
22430;DHT22;11382;48.086;11.632;2022-08-21T00:04:13;17.10;99.90
22430;DHT22;11382;48.086;11.632;2022-08-21T00:06:48;17.00;99.90
22430;DHT22;11382;48.086;11.632;2022-08-21T00:09:17;17.00;99.90
22430;DHT22;11382;48.086;11.632;2022-08-21T00:11:46;16.90;99.90
22430;DHT22;11382;48.086;11.632;2022-08-21T00:14:14;16.90;99.90
22430;DHT22;11382;48.086;11.632;2022-08-21T00:16:43;16.80;99.90
22430;DHT22;11382;48.086;11.632;2022-08-21T00:19:12;16.70;99.90
22430;DHT22;11382;48.086;11.632;2022-08-21T00:21:40;16.70;99.90
22430;DHT22;11382;48.086;11.632;2022-08-21T00:24:10;16.70;99.90
22430;DHT22;11382;48.086;11.632;2022-08-21T00:26:38;16.70;99.90
22430;DHT22;11382;48.086;11.632;2022-08-21T00:29:06;16.60;99.90
22430;DHT22;11382;48.086;11.632;2022-08-21T00:31:34;16.60;99.90
22430;DHT22;11382;48.086;11.632;2022-08-21T00:34:02;16.50;99.90
22430;DHT22;11382;48.086;11.632;2022-08-21T00:36:32;16.50;99.90
22430;DHT22;11382;48.086;11.632;2022-08-21T00:39:00;16.50;99.90
22430;DHT22;11382;48.086;11.632;2022-08-21T00:41:29;16.40;99.90
22430;DHT22;11382;48.086;11.632;2022-08-21T00:44:04;16.50;99.90
22430;DHT22;11382;48.086;11.632;2022-08-21T00:46:33;16.40;99.90
22430;DHT22;11382;48.086;11.632;2022-08-21T00:49:02;16.50;99.90
22430;DHT22;11382;48.086;11.632;2022-08-21T00:51:36;16.40;99.90
22430;DHT22;11382;48.086;11.632;2022-08-21T00:54:06;16.40;99.90
22430;DHT22;11382;48.086;11.632;2022-08-21T00:56:45;16.40;99.90
22430;DHT22;11382;48.086;11.632;2022-08-21T00:59:16;16.40;99.90
22430;DHT22;11382;48.086;11.632;2022-08-21T01:01:44;16.30;99.90
22430;DHT22;11382;48.086;11.632;2022-08-21T01:04:12;16.20;99.90
22430;DHT22;11382;48.086;11.632;2022-08-21T01:06:43;16.20;99.90
22430;DHT22;11382;48.086;11.632;2022-08-21T01:09:12;16.10;99.90
22430;DHT22;11382;48.086;11.632;2022-08-21T01:11:41;16.20;99.90
22430;DHT22;11382;48.086;11.632;2022-08-21T01:14:10;16.10;99.90
22430;DHT22;11382;48.086;11.632;2022-08-21T01:16:39;16.10;99.90
22430;DHT22;11382;48.086;11.632;2022-08-21T01:19:08;16.00;99.90
22430;DHT22;11382;48.086;11.632;2022-08-21T01:21:39;16.00;99.90
22430;DHT22;11382;48.086;11.632;2022-08-21T01:24:10;16.00;99.90
22430;DHT22;11382;48.086;11.632;2022-08-21T01:26:40;15.90;99.90
22430;DHT22;11382;48.086;11.632;2022-08-21T01:29:12;15.90;99.90
22430;DHT22;11382;48.086;11.632;2022-08-21T01:31:42;15.90;99.90
22430;DHT22;11382;48.086;11.632;2022-08-21T01:34:10;15.90;99.90
22430;DHT22;11382;48.086;11.632;2022-08-21T01:36:40;15.90;99.90
22430;DHT22;11382;48.086;11.632;2022-08-21T01:39:08;15.90;99.90
22430;DHT22;11382;48.086;11.632;2022-08-21T01:41:36;15.80;99.90
22430;DHT22;11382;48.086;11.632;2022-08-21T01:44:04;15.80;99.90
22430;DHT22;11382;48.086;11.632;2022-08-21T01:46:32;15.80;99.90
22430;DHT22;11382;48.086;11.632;2022-08-21T01:49:00;15.80;99.90
22430;DHT22;11382;48.086;11.632;2022-08-21T01:51:28;15.80;99.90
22430;DHT22;11382;48.086;11.632;2022-08-21T01:53:58;15.70;99.90
22430;DHT22;11382;48.086;11.632;2022-08-21T01:56:26;15.70;99.90
22430;DHT22;11382;48.086;11.632;2022-08-21T01:58:55;15.70;99.90
22430;DHT22;11382;48.086;11.632;2022-08-21T02:01:23;15.70;99.90
22430;DHT22;11382;48.086;11.632;2022-08-21T02:03:51;15.60;99.90
22430;DHT22;11382;48.086;11.632;2022-08-21T02:06:19;15.70;99.90
22430;DHT22;11382;48.086;11.632;2022-08-21T02:08:47;15.70;99.90
22430;DHT22;11382;48.086;11.632;2022-08-21T02:11:19;15.60;99.90
22430;DHT22;11382;48.086;11.632;2022-08-21T02:13:47;15.60;99.90
22430;DHT22;11382;48.086;11.632;2022-08-21T02:16:15;15.50;99.90
22430;DHT22;11382;48.086;11.632;2022-08-21T02:18:45;15.50;99.90
22430;DHT22;11382;48.086;11.632;2022-08-21T02:21:13;15.50;99.90
22430;DHT22;11382;48.086;11.632;2022-08-21T02:23:41;15.40;99.90
22430;DHT22;11382;48.086;11.632;2022-08-21T02:26:10;15.40;99.90
22430;DHT22;11382;48.086;11.632;2022-08-21T02:28:40;15.40;99.90
22430;DHT22;11382;48.086;11.632;2022-08-21T02:31:09;15.50;99.90
22430;DHT22;11382;48.086;11.632;2022-08-21T02:33:37;15.50;99.90
22430;DHT22;11382;48.086;11.632;2022-08-21T02:36:07;15.50;99.90
22430;DHT22;11382;48.086;11.632;2022-08-21T02:38:36;15.40;99.90
22430;DHT22;11382;48.086;11.632;2022-08-21T02:41:06;15.50;99.90
22430;DHT22;11382;48.086;11.632;2022-08-21T02:43:35;15.40;99.90
22430;DHT22;11382;48.086;11.632;2022-08-21T02:46:06;15.50;99.90
22430;DHT22;11382;48.086;11.632;2022-08-21T02:48:35;15.40;99.90
22430;DHT22;11382;48.086;11.632;2022-08-21T02:51:06;15.40;99.90
22430;DHT22;11382;48.086;11.632;2022-08-21T02:53:34;15.40;99.90
22430;DHT22;11382;48.086;11.632;2022-08-21T02:56:05;15.40;99.90
22430;DHT22;11382;48.086;11.632;2022-08-21T02:58:36;15.40;99.90
22430;DHT22;11382;48.086;11.632;2022-08-21T03:01:07;15.40;99.90
22430;DHT22;11382;48.086;11.632;2022-08-21T03:03:37;15.30;99.90
22430;DHT22;11382;48.086;11.632;2022-08-21T03:06:07;15.30;99.90
22430;DHT22;11382;48.086;11.632;2022-08-21T03:08:36;15.30;99.90
22430;DHT22;11382;48.086;11.632;2022-08-21T03:11:05;15.20;99.90
22430;DHT22;11382;48.086;11.632;2022-08-21T03:13:36;15.30;99.90
22430;DHT22;11382;48.086;11.632;2022-08-21T03:16:04;15.20;99.90
22430;DHT22;11382;48.086;11.632;2022-08-21T03:18:37;15.20;99.90
22430;DHT22;11382;48.086;11.632;2022-08-21T03:21:06;15.10;99.90
22430;DHT22;11382;48.086;11.632;2022-08-21T03:23:34;15.00;99.90
22430;DHT22;11382;48.086;11.632;2022-08-21T03:26:03;15.10;99.90
22430;DHT22;11382;48.086;11.632;2022-08-21T03:28:33;15.10;99.90
22430;DHT22;11382;48.086;11.632;2022-08-21T03:31:01;15.10;99.90
22430;DHT22;11382;48.086;11.632;2022-08-21T03:33:29;15.10;99.90
22430;DHT22;11382;48.086;11.632;2022-08-21T03:36:01;15.10;99.90
22430;DHT22;11382;48.086;11.632;2022-08-21T03:38:31;15.10;99.90
22430;DHT22;11382;48.086;11.632;2022-08-21T03:41:01;15.10;99.90
22430;DHT22;11382;48.086;11.632;2022-08-21T03:43:29;15.10;99.90
22430;DHT22;11382;48.086;11.632;2022-08-21T03:45:58;15.00;99.90
22430;DHT22;11382;48.086;11.632;2022-08-21T03:48:27;15.00;99.90
22430;DHT22;11382;48.086;11.632;2022-08-21T03:50:55;15.00;99.90
22430;DHT22;11382;48.086;11.632;2022-08-21T03:53:25;15.00;99.90
22430;DHT22;11382;48.086;11.632;2022-08-21T03:55:53;15.00;99.90
22430;DHT22;11382;48.086;11.632;2022-08-21T03:58:24;15.00;99.90
22430;DHT22;11382;48.086;11.632;2022-08-21T04:00:56;14.90;99.90
22430;DHT22;11382;48.086;11.632;2022-08-21T04:03:25;14.90;99.90
22430;DHT22;11382;48.086;11.632;2022-08-21T04:05:53;14.90;99.90
22430;DHT22;11382;48.086;11.632;2022-08-21T04:08:21;14.90;99.90
22430;DHT22;11382;48.086;11.632;2022-08-21T04:10:53;14.80;99.90
22430;DHT22;11382;48.086;11.632;2022-08-21T04:13:22;14.70;99.90
22430;DHT22;11382;48.086;11.632;2022-08-21T04:15:50;14.80;99.90
22430;DHT22;11382;48.086;11.632;2022-08-21T04:18:18;14.80;99.90
22430;DHT22;11382;48.086;11.632;2022-08-21T04:20:48;14.80;99.90
22430;DHT22;11382;48.086;11.632;2022-08-21T04:23:17;14.80;99.90
22430;DHT22;11382;48.086;11.632;2022-08-21T04:25:52;14.80;99.90
22430;DHT22;11382;48.086;11.632;2022-08-21T04:28:21;14.80;99.90
22430;DHT22;11382;48.086;11.632;2022-08-21T04:30:55;14.70;99.90
22430;DHT22;11382;48.086;11.632;2022-08-21T04:33:23;14.80;99.90
22430;DHT22;11382;48.086;11.632;2022-08-21T04:35:52;14.70;99.90
22430;DHT22;11382;48.086;11.632;2022-08-21T04:38:19;14.70;99.90
22430;DHT22;11382;48.086;11.632;2022-08-21T04:40:48;14.70;99.90
22430;DHT22;11382;48.086;11.632;2022-08-21T04:43:18;14.70;99.90
22430;DHT22;11382;48.086;11.632;2022-08-21T04:45:49;14.80;99.90
22430;DHT22;11382;48.086;11.632;2022-08-21T04:48:20;14.70;99.90
22430;DHT22;11382;48.086;11.632;2022-08-21T04:50:53;14.80;99.90
22430;DHT22;11382;48.086;11.632;2022-08-21T04:53:27;14.70;99.90
22430;DHT22;11382;48.086;11.632;2022-08-21T04:56:02;14.70;99.90
22430;DHT22;11382;48.086;11.632;2022-08-21T04:58:34;14.80;99.90
22430;DHT22;11382;48.086;11.632;2022-08-21T05:01:04;14.90;99.90
22430;DHT22;11382;48.086;11.632;2022-08-21T05:03:36;15.00;99.90
22430;DHT22;11382;48.086;11.632;2022-08-21T05:06:07;15.20;99.90
22430;DHT22;11382;48.086;11.632;2022-08-21T05:08:37;15.40;99.90
22430;DHT22;11382;48.086;11.632;2022-08-21T05:11:06;15.70;99.90
22430;DHT22;11382;48.086;11.632;2022-08-21T05:13:36;16.60;99.90
22430;DHT22;11382;48.086;11.632;2022-08-21T05:16:04;17.20;99.90
22430;DHT22;11382;48.086;11.632;2022-08-21T05:18:32;17.60;99.90
22430;DHT22;11382;48.086;11.632;2022-08-21T05:21:00;17.90;99.90
22430;DHT22;11382;48.086;11.632;2022-08-21T05:23:28;17.80;99.90
22430;DHT22;11382;48.086;11.632;2022-08-21T05:25:56;18.30;99.90
22430;DHT22;11382;48.086;11.632;2022-08-21T05:28:24;18.90;99.90
22430;DHT22;11382;48.086;11.632;2022-08-21T05:30:54;18.90;99.90
22430;DHT22;11382;48.086;11.632;2022-08-21T05:33:22;18.90;99.90
22430;DHT22;11382;48.086;11.632;2022-08-21T05:35:51;18.50;99.90
22430;DHT22;11382;48.086;11.632;2022-08-21T05:38:19;18.40;99.90
22430;DHT22;11382;48.086;11.632;2022-08-21T05:40:47;18.40;99.90
22430;DHT22;11382;48.086;11.632;2022-08-21T05:43:15;18.40;99.90
22430;DHT22;11382;48.086;11.632;2022-08-21T05:45:43;18.50;99.90
22430;DHT22;11382;48.086;11.632;2022-08-21T05:48:15;18.70;99.90
22430;DHT22;11382;48.086;11.632;2022-08-21T05:50:44;18.70;99.90
22430;DHT22;11382;48.086;11.632;2022-08-21T05:53:14;18.70;99.90
22430;DHT22;11382;48.086;11.632;2022-08-21T05:55:42;19.70;99.90
22430;DHT22;11382;48.086;11.632;2022-08-21T05:58:13;20.80;99.90
22430;DHT22;11382;48.086;11.632;2022-08-21T06:00:41;21.90;99.90
22430;DHT22;11382;48.086;11.632;2022-08-21T06:03:16;23.20;99.90
22430;DHT22;11382;48.086;11.632;2022-08-21T06:05:46;24.20;99.90
22430;DHT22;11382;48.086;11.632;2022-08-21T06:08:14;24.80;99.90
22430;DHT22;11382;48.086;11.632;2022-08-21T06:10:43;25.00;99.90
22430;DHT22;11382;48.086;11.632;2022-08-21T06:13:11;25.60;99.90
22430;DHT22;11382;48.086;11.632;2022-08-21T06:15:39;25.70;99.90
22430;DHT22;11382;48.086;11.632;2022-08-21T06:18:08;26.80;99.90
22430;DHT22;11382;48.086;11.632;2022-08-21T06:20:38;27.20;99.90
22430;DHT22;11382;48.086;11.632;2022-08-21T06:23:06;27.70;99.90
22430;DHT22;11382;48.086;11.632;2022-08-21T06:25:34;28.40;99.90
22430;DHT22;11382;48.086;11.632;2022-08-21T06:28:04;28.50;99.90
22430;DHT22;11382;48.086;11.632;2022-08-21T06:30:32;28.50;99.90
22430;DHT22;11382;48.086;11.632;2022-08-21T06:33:00;28.90;99.90
22430;DHT22;11382;48.086;11.632;2022-08-21T06:35:29;29.50;99.00
22430;DHT22;11382;48.086;11.632;2022-08-21T06:37:59;29.80;97.70
22430;DHT22;11382;48.086;11.632;2022-08-21T06:40:28;30.30;96.70
22430;DHT22;11382;48.086;11.632;2022-08-21T06:43:05;30.10;97.90
22430;DHT22;11382;48.086;11.632;2022-08-21T06:45:33;30.60;96.50
22430;DHT22;11382;48.086;11.632;2022-08-21T06:48:01;30.90;94.20
22430;DHT22;11382;48.086;11.632;2022-08-21T06:50:30;31.50;93.50
22430;DHT22;11382;48.086;11.632;2022-08-21T06:53:00;30.80;93.00
22430;DHT22;11382;48.086;11.632;2022-08-21T06:55:29;30.20;94.20
22430;DHT22;11382;48.086;11.632;2022-08-21T06:57:57;29.80;93.90
22430;DHT22;11382;48.086;11.632;2022-08-21T07:00:25;29.90;94.00
22430;DHT22;11382;48.086;11.632;2022-08-21T07:02:53;30.10;93.60
22430;DHT22;11382;48.086;11.632;2022-08-21T07:05:21;30.60;93.20
22430;DHT22;11382;48.086;11.632;2022-08-21T07:07:49;31.40;92.50
22430;DHT22;11382;48.086;11.632;2022-08-21T07:10:19;31.40;92.10
22430;DHT22;11382;48.086;11.632;2022-08-21T07:12:48;31.50;90.40
22430;DHT22;11382;48.086;11.632;2022-08-21T07:15:26;31.40;90.80
22430;DHT22;11382;48.086;11.632;2022-08-21T07:17:56;30.80;89.70
22430;DHT22;11382;48.086;11.632;2022-08-21T07:20:25;30.90;91.40
22430;DHT22;11382;48.086;11.632;2022-08-21T07:22:53;31.70;90.50
22430;DHT22;11382;48.086;11.632;2022-08-21T07:25:22;32.30;87.30
22430;DHT22;11382;48.086;11.632;2022-08-21T07:27:51;32.30;84.00
22430;DHT22;11382;48.086;11.632;2022-08-21T07:30:19;32.40;82.90
22430;DHT22;11382;48.086;11.632;2022-08-21T07:32:47;32.80;81.90
22430;DHT22;11382;48.086;11.632;2022-08-21T07:35:17;32.70;82.20
22430;DHT22;11382;48.086;11.632;2022-08-21T07:37:45;33.70;78.60
22430;DHT22;11382;48.086;11.632;2022-08-21T07:40:14;33.90;77.90
22430;DHT22;11382;48.086;11.632;2022-08-21T07:42:46;33.70;77.90
22430;DHT22;11382;48.086;11.632;2022-08-21T07:45:17;34.30;75.00
22430;DHT22;11382;48.086;11.632;2022-08-21T07:47:45;33.40;76.40
22430;DHT22;11382;48.086;11.632;2022-08-21T07:50:15;32.90;78.20
22430;DHT22;11382;48.086;11.632;2022-08-21T07:52:43;33.30;76.60
22430;DHT22;11382;48.086;11.632;2022-08-21T07:55:14;33.20;77.10
22430;DHT22;11382;48.086;11.632;2022-08-21T07:57:42;33.30;76.70
22430;DHT22;11382;48.086;11.632;2022-08-21T08:00:16;33.90;72.00
22430;DHT22;11382;48.086;11.632;2022-08-21T08:02:45;33.90;73.90
22430;DHT22;11382;48.086;11.632;2022-08-21T08:05:18;34.50;72.00
22430;DHT22;11382;48.086;11.632;2022-08-21T08:07:46;34.90;70.20
22430;DHT22;11382;48.086;11.632;2022-08-21T08:10:15;35.50;70.20
22430;DHT22;11382;48.086;11.632;2022-08-21T08:12:45;36.50;65.80
22430;DHT22;11382;48.086;11.632;2022-08-21T08:15:16;36.80;65.20
22430;DHT22;11382;48.086;11.632;2022-08-21T08:17:45;36.50;63.50
22430;DHT22;11382;48.086;11.632;2022-08-21T08:20:14;35.60;64.90
22430;DHT22;11382;48.086;11.632;2022-08-21T08:22:44;35.80;64.90
22430;DHT22;11382;48.086;11.632;2022-08-21T08:25:18;36.00;63.70
22430;DHT22;11382;48.086;11.632;2022-08-21T08:27:46;36.70;63.00
22430;DHT22;11382;48.086;11.632;2022-08-21T08:30:18;37.10;62.50
22430;DHT22;11382;48.086;11.632;2022-08-21T08:32:46;37.00;61.60
22430;DHT22;11382;48.086;11.632;2022-08-21T08:35:15;36.40;61.90
22430;DHT22;11382;48.086;11.632;2022-08-21T08:37:43;36.40;63.40
22430;DHT22;11382;48.086;11.632;2022-08-21T08:40:20;35.70;62.80
22430;DHT22;11382;48.086;11.632;2022-08-21T08:42:50;35.70;61.90
22430;DHT22;11382;48.086;11.632;2022-08-21T08:45:20;34.90;66.30
22430;DHT22;11382;48.086;11.632;2022-08-21T08:47:53;34.80;63.10
22430;DHT22;11382;48.086;11.632;2022-08-21T08:50:28;35.50;61.30
22430;DHT22;11382;48.086;11.632;2022-08-21T08:53:04;36.00;61.10
22430;DHT22;11382;48.086;11.632;2022-08-21T08:55:34;36.10;61.10
22430;DHT22;11382;48.086;11.632;2022-08-21T08:58:03;36.00;59.60
22430;DHT22;11382;48.086;11.632;2022-08-21T09:00:33;35.70;60.00
22430;DHT22;11382;48.086;11.632;2022-08-21T09:03:02;36.40;58.00
22430;DHT22;11382;48.086;11.632;2022-08-21T09:05:39;37.30;60.10
22430;DHT22;11382;48.086;11.632;2022-08-21T09:08:20;36.30;58.60
22430;DHT22;11382;48.086;11.632;2022-08-21T09:10:59;36.20;59.80
22430;DHT22;11382;48.086;11.632;2022-08-21T09:13:37;37.00;59.80
22430;DHT22;11382;48.086;11.632;2022-08-21T09:16:13;36.20;58.20
22430;DHT22;11382;48.086;11.632;2022-08-21T09:18:54;37.30;57.20
22430;DHT22;11382;48.086;11.632;2022-08-21T09:21:35;37.30;56.40
22430;DHT22;11382;48.086;11.632;2022-08-21T09:24:17;34.70;59.40
22430;DHT22;11382;48.086;11.632;2022-08-21T09:26:53;34.30;61.00
22430;DHT22;11382;48.086;11.632;2022-08-21T09:29:27;35.60;59.80
22430;DHT22;11382;48.086;11.632;2022-08-21T09:31:59;36.20;59.60
22430;DHT22;11382;48.086;11.632;2022-08-21T09:34:28;36.80;57.80
22430;DHT22;11382;48.086;11.632;2022-08-21T09:36:58;37.10;57.90
22430;DHT22;11382;48.086;11.632;2022-08-21T09:39:28;36.70;57.50
22430;DHT22;11382;48.086;11.632;2022-08-21T09:41:57;36.80;56.70
22430;DHT22;11382;48.086;11.632;2022-08-21T09:44:27;37.30;56.00
22430;DHT22;11382;48.086;11.632;2022-08-21T09:46:56;38.50;55.50
22430;DHT22;11382;48.086;11.632;2022-08-21T09:49:30;39.40;53.30
22430;DHT22;11382;48.086;11.632;2022-08-21T09:51:58;39.60;52.10
22430;DHT22;11382;48.086;11.632;2022-08-21T09:54:30;39.00;52.50
22430;DHT22;11382;48.086;11.632;2022-08-21T09:57:00;38.20;52.90
22430;DHT22;11382;48.086;11.632;2022-08-21T09:59:49;35.80;55.00
22430;DHT22;11382;48.086;11.632;2022-08-21T10:02:26;34.90;57.90
22430;DHT22;11382;48.086;11.632;2022-08-21T10:04:59;34.80;57.50
22430;DHT22;11382;48.086;11.632;2022-08-21T10:07:29;35.90;55.10
22430;DHT22;11382;48.086;11.632;2022-08-21T10:09:59;37.10;53.70
22430;DHT22;11382;48.086;11.632;2022-08-21T10:12:35;38.10;52.40
22430;DHT22;11382;48.086;11.632;2022-08-21T10:15:12;39.20;52.50
22430;DHT22;11382;48.086;11.632;2022-08-21T10:17:46;39.70;51.60
22430;DHT22;11382;48.086;11.632;2022-08-21T10:20:24;38.00;51.60
22430;DHT22;11382;48.086;11.632;2022-08-21T10:23:02;35.60;54.80
22430;DHT22;11382;48.086;11.632;2022-08-21T10:25:40;33.70;58.30
22430;DHT22;11382;48.086;11.632;2022-08-21T10:28:27;33.20;58.80
22430;DHT22;11382;48.086;11.632;2022-08-21T10:31:05;32.50;62.00
22430;DHT22;11382;48.086;11.632;2022-08-21T10:33:40;30.80;65.50
22430;DHT22;11382;48.086;11.632;2022-08-21T10:36:15;29.60;70.40
22430;DHT22;11382;48.086;11.632;2022-08-21T10:38:56;28.90;72.10
22430;DHT22;11382;48.086;11.632;2022-08-21T10:42:03;28.60;74.20
22430;DHT22;11382;48.086;11.632;2022-08-21T10:44:38;28.60;76.00
22430;DHT22;11382;48.086;11.632;2022-08-21T10:47:16;29.20;73.50
22430;DHT22;11382;48.086;11.632;2022-08-21T10:49:52;32.90;66.90
22430;DHT22;11382;48.086;11.632;2022-08-21T10:52:36;35.20;61.60
22430;DHT22;11382;48.086;11.632;2022-08-21T10:55:12;36.40;60.00
22430;DHT22;11382;48.086;11.632;2022-08-21T10:57:46;37.50;56.20
22430;DHT22;11382;48.086;11.632;2022-08-21T11:00:17;37.90;57.00
22430;DHT22;11382;48.086;11.632;2022-08-21T11:02:51;35.90;57.00
22430;DHT22;11382;48.086;11.632;2022-08-21T11:05:25;33.60;61.20
22430;DHT22;11382;48.086;11.632;2022-08-21T11:07:59;31.10;69.10
22430;DHT22;11382;48.086;11.632;2022-08-21T11:10:33;29.60;72.90
22430;DHT22;11382;48.086;11.632;2022-08-21T11:13:29;28.40;74.60
22430;DHT22;11382;48.086;11.632;2022-08-21T11:16:03;27.70;79.30
22430;DHT22;11382;48.086;11.632;2022-08-21T11:18:36;26.80;81.80
22430;DHT22;11382;48.086;11.632;2022-08-21T11:21:29;26.10;83.80
22430;DHT22;11382;48.086;11.632;2022-08-21T11:24:03;25.90;86.40
22430;DHT22;11382;48.086;11.632;2022-08-21T11:26:37;26.10;85.30
22430;DHT22;11382;48.086;11.632;2022-08-21T11:29:11;29.30;80.90
22430;DHT22;11382;48.086;11.632;2022-08-21T11:31:51;33.00;69.50
22430;DHT22;11382;48.086;11.632;2022-08-21T11:34:34;32.40;65.20
22430;DHT22;11382;48.086;11.632;2022-08-21T11:37:09;32.20;66.70
22430;DHT22;11382;48.086;11.632;2022-08-21T11:39:45;32.50;61.70
22430;DHT22;11382;48.086;11.632;2022-08-21T11:42:24;31.60;62.80
22430;DHT22;11382;48.086;11.632;2022-08-21T11:44:56;33.80;61.30
22430;DHT22;11382;48.086;11.632;2022-08-21T11:47:35;36.20;57.90
22430;DHT22;11382;48.086;11.632;2022-08-21T11:50:13;37.70;57.50
22430;DHT22;11382;48.086;11.632;2022-08-21T11:53:01;36.90;56.30
22430;DHT22;11382;48.086;11.632;2022-08-21T11:55:38;33.10;60.30
22430;DHT22;11382;48.086;11.632;2022-08-21T11:58:14;30.80;66.40
22430;DHT22;11382;48.086;11.632;2022-08-21T12:00:47;29.10;64.60
22430;DHT22;11382;48.086;11.632;2022-08-21T12:03:21;28.50;68.70
22430;DHT22;11382;48.086;11.632;2022-08-21T12:05:53;28.10;72.60
22430;DHT22;11382;48.086;11.632;2022-08-21T12:08:31;27.80;74.50
22430;DHT22;11382;48.086;11.632;2022-08-21T12:11:04;27.90;76.10
22430;DHT22;11382;48.086;11.632;2022-08-21T12:13:34;28.00;76.00
22430;DHT22;11382;48.086;11.632;2022-08-21T12:16:10;28.10;76.30
22430;DHT22;11382;48.086;11.632;2022-08-21T12:18:39;28.40;77.30
22430;DHT22;11382;48.086;11.632;2022-08-21T12:21:21;28.80;77.20
22430;DHT22;11382;48.086;11.632;2022-08-21T12:24:01;28.90;73.50
22430;DHT22;11382;48.086;11.632;2022-08-21T12:26:33;28.80;70.90
22430;DHT22;11382;48.086;11.632;2022-08-21T12:29:07;28.80;68.20
22430;DHT22;11382;48.086;11.632;2022-08-21T12:31:52;29.30;66.20
22430;DHT22;11382;48.086;11.632;2022-08-21T12:34:23;30.00;69.90
22430;DHT22;11382;48.086;11.632;2022-08-21T12:36:56;30.00;67.30
22430;DHT22;11382;48.086;11.632;2022-08-21T12:39:26;29.80;64.00
22430;DHT22;11382;48.086;11.632;2022-08-21T12:41:59;29.50;66.10
22430;DHT22;11382;48.086;11.632;2022-08-21T12:44:33;28.90;66.70
22430;DHT22;11382;48.086;11.632;2022-08-21T12:47:05;28.30;68.30
22430;DHT22;11382;48.086;11.632;2022-08-21T12:49:36;28.60;69.20
22430;DHT22;11382;48.086;11.632;2022-08-21T12:52:11;28.60;68.70
22430;DHT22;11382;48.086;11.632;2022-08-21T12:54:43;28.40;68.80
22430;DHT22;11382;48.086;11.632;2022-08-21T12:57:21;28.00;67.40
22430;DHT22;11382;48.086;11.632;2022-08-21T12:59:54;27.80;68.90
22430;DHT22;11382;48.086;11.632;2022-08-21T13:02:23;28.10;68.20
22430;DHT22;11382;48.086;11.632;2022-08-21T13:04:52;28.30;63.30
22430;DHT22;11382;48.086;11.632;2022-08-21T13:07:25;28.10;65.90
22430;DHT22;11382;48.086;11.632;2022-08-21T13:09:56;28.10;67.20
22430;DHT22;11382;48.086;11.632;2022-08-21T13:12:28;27.80;68.40
22430;DHT22;11382;48.086;11.632;2022-08-21T13:14:59;27.10;71.70
22430;DHT22;11382;48.086;11.632;2022-08-21T13:17:32;26.50;73.20
22430;DHT22;11382;48.086;11.632;2022-08-21T13:20:07;26.00;74.90
22430;DHT22;11382;48.086;11.632;2022-08-21T13:22:40;26.30;76.80
22430;DHT22;11382;48.086;11.632;2022-08-21T13:25:11;26.50;76.60
22430;DHT22;11382;48.086;11.632;2022-08-21T13:27:42;26.40;77.60
22430;DHT22;11382;48.086;11.632;2022-08-21T13:30:13;26.30;76.10
22430;DHT22;11382;48.086;11.632;2022-08-21T13:32:43;26.50;76.70
22430;DHT22;11382;48.086;11.632;2022-08-21T13:35:15;26.70;75.30
22430;DHT22;11382;48.086;11.632;2022-08-21T13:37:45;26.90;73.90
22430;DHT22;11382;48.086;11.632;2022-08-21T13:40:16;26.90;74.00
22430;DHT22;11382;48.086;11.632;2022-08-21T13:42:47;27.00;72.70
22430;DHT22;11382;48.086;11.632;2022-08-21T13:45:21;27.00;74.50
22430;DHT22;11382;48.086;11.632;2022-08-21T13:47:50;26.70;74.40
22430;DHT22;11382;48.086;11.632;2022-08-21T13:50:21;26.60;76.70
22430;DHT22;11382;48.086;11.632;2022-08-21T13:52:57;26.60;76.60
22430;DHT22;11382;48.086;11.632;2022-08-21T13:55:33;26.50;77.60
22430;DHT22;11382;48.086;11.632;2022-08-21T13:58:05;26.20;78.60
22430;DHT22;11382;48.086;11.632;2022-08-21T14:00:35;25.80;81.10
22430;DHT22;11382;48.086;11.632;2022-08-21T14:03:08;25.30;79.20
22430;DHT22;11382;48.086;11.632;2022-08-21T14:05:45;25.60;80.40
22430;DHT22;11382;48.086;11.632;2022-08-21T14:08:21;25.50;79.50
22430;DHT22;11382;48.086;11.632;2022-08-21T14:10:56;25.60;79.30
22430;DHT22;11382;48.086;11.632;2022-08-21T14:13:37;25.80;78.60
22430;DHT22;11382;48.086;11.632;2022-08-21T14:16:12;25.90;79.00
22430;DHT22;11382;48.086;11.632;2022-08-21T14:18:50;26.20;77.80
22430;DHT22;11382;48.086;11.632;2022-08-21T14:21:30;26.10;77.20
22430;DHT22;11382;48.086;11.632;2022-08-21T14:24:02;26.20;78.10
22430;DHT22;11382;48.086;11.632;2022-08-21T14:26:31;26.60;77.50
22430;DHT22;11382;48.086;11.632;2022-08-21T14:29:01;26.60;79.50
22430;DHT22;11382;48.086;11.632;2022-08-21T14:31:36;26.70;79.60
22430;DHT22;11382;48.086;11.632;2022-08-21T14:34:10;26.40;77.00
22430;DHT22;11382;48.086;11.632;2022-08-21T14:36:46;26.40;75.60
22430;DHT22;11382;48.086;11.632;2022-08-21T14:39:14;26.60;78.40
22430;DHT22;11382;48.086;11.632;2022-08-21T14:41:43;26.60;76.40
22430;DHT22;11382;48.086;11.632;2022-08-21T14:44:14;26.40;77.70
22430;DHT22;11382;48.086;11.632;2022-08-21T14:46:42;26.10;76.10
22430;DHT22;11382;48.086;11.632;2022-08-21T14:49:26;25.60;75.70
22430;DHT22;11382;48.086;11.632;2022-08-21T14:51:55;25.30;77.30
22430;DHT22;11382;48.086;11.632;2022-08-21T14:54:25;25.20;78.30
22430;DHT22;11382;48.086;11.632;2022-08-21T14:56:59;24.90;77.70
22430;DHT22;11382;48.086;11.632;2022-08-21T14:59:30;24.90;78.60
22430;DHT22;11382;48.086;11.632;2022-08-21T15:01:59;25.20;80.10
22430;DHT22;11382;48.086;11.632;2022-08-21T15:04:27;25.70;81.80
22430;DHT22;11382;48.086;11.632;2022-08-21T15:06:55;25.90;77.70
22430;DHT22;11382;48.086;11.632;2022-08-21T15:09:23;25.70;78.90
22430;DHT22;11382;48.086;11.632;2022-08-21T15:11:52;25.40;79.00
22430;DHT22;11382;48.086;11.632;2022-08-21T15:14:22;25.30;78.90
22430;DHT22;11382;48.086;11.632;2022-08-21T15:16:52;25.20;80.00
22430;DHT22;11382;48.086;11.632;2022-08-21T15:19:20;25.10;80.00
22430;DHT22;11382;48.086;11.632;2022-08-21T15:21:48;24.90;77.70
22430;DHT22;11382;48.086;11.632;2022-08-21T15:24:16;25.00;81.20
22430;DHT22;11382;48.086;11.632;2022-08-21T15:26:45;25.10;81.10
22430;DHT22;11382;48.086;11.632;2022-08-21T15:29:14;25.10;78.90
22430;DHT22;11382;48.086;11.632;2022-08-21T15:31:55;24.90;78.00
22430;DHT22;11382;48.086;11.632;2022-08-21T15:34:25;24.70;78.60
22430;DHT22;11382;48.086;11.632;2022-08-21T15:36:54;24.60;82.20
22430;DHT22;11382;48.086;11.632;2022-08-21T15:39:23;24.70;81.40
22430;DHT22;11382;48.086;11.632;2022-08-21T15:41:55;24.70;81.00